Weather observations for the past three days for
Scott Municipal Airport
Metric (Imperial)
Date Time (edt) Wind (kph) Vis. (km) Weather Sky Cond. Temperature (ºC) Relative Humidity Wind Chill (°C) Heat Index (°C) Pressure Precipitation (cm)
Air Dwpt 6 hour altimeter (cm) sea level (mb) 1 hr 3 hr 6 hr
Max. Min.
02 15:15 N 13 G 28 16.09 Mostly Cloudy FEW060 SCT070 BKN085 14 0 39% 76.17 0.0
02 14:55 N 20 G 31 16.09 Partly Cloudy SCT080 14 0 39% 76.17 0.0
02 14:35 N 15 G 31 16.09 Overcast FEW060 SCT070 OVC080 14 0 39% 76.17 0.0
02 14:15 N 20 G 31 16.09 Overcast SCT060 OVC075 14 0 39% 76.17 0.0
02 13:55 N 20 G 30 16.09 Mostly Cloudy BKN065 BKN080 15 0 36% 76.17 0.0
02 13:35 Vrbl 11 G 26 16.09 Partly Cloudy SCT060 SCT070 14 -1 36% 76.2 0.0
02 13:15 Vrbl 9 G 22 16.09 Partly Cloudy FEW065 SCT070 15 -1 34% 76.2 0.0
02 12:55 N 15 16.09 Mostly Cloudy BKN060 BKN070 14 -2 33% 76.23 0.0
02 12:35 Vrbl 7 G 19 16.09 Partly Cloudy SCT060 14 -1 36% 76.25 0.0
02 12:15 N 15 G 26 16.09 Fair CLR 14 -1 36% 76.25 0.0
02 11:55 NW 13 16.09 Fair CLR 14 -1 36% 76.23 0.0
02 11:35 Vrbl 7 G 22 16.09 Fair CLR 13 -1 38% 76.23 0.0
02 11:15 NE 13 16.09 Fair CLR 12 -1 41% 76.25 0.0
02 10:55 NE 19 16.09 Fair CLR 12 0 44% 76.25 0.0
02 10:35 N 19 16.09 Fair CLR 12 0 44% 76.25 0.0
02 10:15 N 22 16.09 Fair CLR 11 0 47% 76.25 0.0
02 09:55 N 15 16.09 Fair CLR 11 1 50% 76.25 0.0
02 09:35 NE 17 16.09 Fair CLR 11 2 54% 76.25 0.0
02 09:15 N 11 16.09 Fair CLR 10 3 62% 9 76.25 0.0
02 08:55 N 9 16.09 Fair CLR 8 4 76% 7 76.23 0.0
02 08:35 N 7 16.09 Fair CLR 7 4 81% 6 76.23 0.0
02 08:15 NE 7 16.09 Fair CLR 6 5 93% 5 76.2 0.0
02 07:55 N 7 16.09 Fair CLR 5 4 93% 4 76.17 0.0
02 07:35 N 9 16.09 Fair CLR 5 4 93% 3 76.2 0.0
02 07:10 N 7 16.09 Fair CLR 4 3 93% 2 76.17 0.0
02 06:55 N 7 16.09 Fair CLR 4 3 93% 2 76.17 0.0
02 06:35 N 7 16.09 Fair CLR 5 3 87% 4 76.17 0.0
02 06:15 NE 6 16.09 Fair CLR 5 3 87% 76.15 0.0
02 05:55 NE 7 16.09 Fair CLR 5 4 93% 4 76.15 0.0
02 05:35 N 7 16.09 Fair CLR 5 3 87% 4 76.15 0.0
02 05:15 N 9 16.09 Fair CLR 5 4 93% 3 76.15 0.0
02 04:55 N 9 16.09 Fair CLR 5 4 93% 3 76.15 0.0
02 04:35 N 9 16.09 Fair CLR 4 3 93% 2 76.15 0.0
02 04:15 Calm 16.09 Fair CLR 5 3 87% 76.2 0.0
02 03:55 Calm 16.09 A Few Clouds FEW050 5 3 87% 76.2 0.0
02 03:35 N 9 16.09 Mostly Cloudy SCT050 BKN055 6 3 81% 4 76.2 0.0
02 03:15 N 7 16.09 Mostly Cloudy BKN055 7 3 76% 6 76.2 0.0
02 02:55 N 7 16.09 Partly Cloudy FEW050 SCT055 6 3 81% 5 76.2 0.0
02 02:35 N 7 16.09 Partly Cloudy SCT050 7 3 76% 6 76.2 0.0
02 02:15 N 9 16.09 Mostly Cloudy FEW046 BKN050 7 2 71% 5 76.2 0.0
02 01:55 NE 7 16.09 Mostly Cloudy SCT048 BKN055 8 2 66% 7 76.2 0.0
02 01:35 NE 11 16.09 Partly Cloudy SCT050 8 2 66% 6 76.2 0.0
02 01:15 NE 13 16.09 Partly Cloudy FEW039 SCT049 9 2 62% 7 76.2 0.0
02 00:55 N 15 16.09 Partly Cloudy FEW040 SCT050 9 2 62% 7 76.2 0.0
02 00:35 N 15 16.09 Partly Cloudy FEW041 SCT050 9 2 62% 7 76.17 0.0
02 00:15 N 17 16.09 Mostly Cloudy FEW040 BKN049 BKN055 9 2 62% 7 76.2 0.0
01 23:55 N 17 16.09 Mostly Cloudy FEW047 BKN055 10 1 54% 8 76.2 0.0
01 23:35 N 15 16.09 Mostly Cloudy FEW039 SCT048 BKN055 10 1 54% 8 76.2 0.0
01 23:15 N 13 16.09 Mostly Cloudy FEW034 SCT041 BKN046 10 1 54% 8 76.2 0.0
01 22:55 N 11 16.09 Mostly Cloudy FEW031 SCT037 BKN044 10 1 54% 9 76.2 0.0
01 22:35 N 11 16.09 Overcast FEW045 OVC055 11 1 50% 76.2 0.0
01 22:15 N 9 16.09 Overcast OVC055 11 1 50% 76.2 0.0
01 21:55 NW 9 16.09 Overcast OVC050 11 2 54% 76.17 0.0
01 21:35 N 9 16.09 Overcast OVC050 12 2 51% 76.15 0.0
01 21:15 N 11 16.09 Overcast OVC050 13 2 47% 76.12 0.0
01 20:55 NW 9 16.09 Mostly Cloudy BKN055 13 3 51% 76.1 0.0
01 20:35 Vrbl 7 16.09 Partly Cloudy FEW050 SCT060 13 4 55% 76.05 0.0
01 20:15 NW 7 16.09 A Few Clouds FEW050 14 3 48% 76.05 0.0
01 19:55 NW 13 16.09 Fair CLR 14 4 51% 76.02 0.0
01 19:35 N 19 16.09 Partly Cloudy SCT047 15 4 48% 76 0.0
01 19:15 NW 15 16.09 A Few Clouds FEW048 15 5 51% 76 0.0
01 18:55 N 15 16.09 Fair CLR 16 5 48% 75.97 0.0
01 18:35 Vrbl 9 16.09 A Few Clouds FEW060 16 6 52% 75.97 0.0
01 18:15 N 19 16.09 Fair CLR 17 6 49% 75.97 0.0
01 17:55 W 17 G 26 16.09 Fair CLR 17 5 45% 75.97 0.0
01 17:35 Vrbl 9 G 20 16.09 Fair CLR 18 5 43% 75.97 0.0
01 17:15 NW 13 G 26 16.09 A Few Clouds FEW065 FEW075 18 4 40% 75.97 0.0
01 16:55 NW 6 G 19 16.09 Mostly Cloudy SCT060 BKN070 18 4 40% 75.97 0.0
01 16:30 Vrbl 11 G 20 16.09 Partly Cloudy FEW060 SCT075 18 4 40% 76 0.0
01 16:15 Vrbl 9 16.09 Mostly Cloudy SCT060 BKN070 19 4 37% 76.02 0.0
01 15:55 W 11 G 26 16.09 Partly Cloudy SCT060 SCT075 18 3 37% 76.02 0.0
01 15:35 W 15 G 30 16.09 A Few Clouds FEW060 19 3 35% 76.02 0.0
01 15:15 NW 15 16.09 A Few Clouds FEW065 18 3 37% 76.02 0.0
01 14:55 W 13 16.09 A Few Clouds FEW060 19 4 37% 76.02 0.0
01 14:35 Vrbl 9 G 24 16.09 Partly Cloudy SCT060 20 4 35% 76.05 0.0
01 14:15 W 20 16.09 Fair CLR 19 3 35% 76.05 0.0
01 13:55 NW 19 G 28 16.09 Fair CLR 18 3 37% 76.07 0.0
01 13:35 W 11 G 22 16.09 Fair CLR 19 2 32% 76.07 0.0
01 13:15 Vrbl 7 G 28 16.09 Fair CLR 18 2 34% 76.07 0.0
01 12:55 Vrbl 11 G 20 16.09 Fair CLR 18 2 34% 76.07 0.0
01 12:35 W 13 16.09 Fair CLR 18 2 34% 76.1 0.0
01 12:15 Vrbl 11 G 24 16.09 Fair CLR 18 2 34% 76.12 0.0
01 11:55 Vrbl 9 16.09 Fair CLR 17 2 37% 76.12 0.0
01 11:35 Calm 16.09 Fair CLR 16 4 45% 76.12 0.0
01 11:15 Vrbl 9 16.09 Fair CLR 15 3 45% 76.12 0.0
01 10:55 SW 11 G 20 16.09 Fair CLR 15 3 45% 76.15 0.0
01 10:35 S 9 16.09 Fair CLR 14 4 51% 76.12 0.0
01 10:15 S 7 16.09 Fair CLR 12 5 63% 76.12 0.0
01 09:55 S 9 16.09 Fair CLR 11 5 67% 76.12 0.0
01 09:35 S 9 16.09 Fair CLR 10 5 71% 9 76.12 0.0
01 09:15 S 9 16.09 Fair CLR 9 5 76% 8 76.12 0.0
01 08:55 S 6 16.09 Fair CLR 8 5 82% 76.12 0.0
01 08:35 Calm 16.09 Fair CLR 7 5 87% 76.12 0.0
01 08:15 Calm 16.09 Fair CLR 5 5 100% 76.1 0.0
01 07:55 Calm 16.09 Fair CLR 4 3 93% 76.1 0.0
01 07:35 Calm 16.09 Fair CLR 3 3 100% 76.1 0.0
01 07:15 Calm 16.09 Fair CLR 3 3 100% 76.07 0.0
01 06:55 Calm 16.09 Fair CLR 3 3 100% 76.07 0.0
01 06:35 Calm 16.09 Fair CLR 3 3 100% 76.07 0.0
01 06:10 Calm 16.09 Fair CLR 4 4 100% 76.07 0.0
01 05:55 Calm 16.09 Fair CLR 4 3 93% 76.07 0.0
01 05:35 Calm 16.09 Fair CLR 5 4 93% 76.07 0.0
01 05:10 Calm 16.09 Mostly Cloudy BKN120 4 4 100% 76.07 0.0
01 04:55 Calm 16.09 Mostly Cloudy BKN120 4 3 93% 76.07 0.0
01 04:35 Calm 16.09 Fair CLR 4 4 100% 76.1 0.0
01 04:15 Calm 16.09 Fair CLR 4 4 100% 76.07 0.0
01 03:55 Calm 16.09 Fair CLR 4 4 100% 76.1 0.0
01 03:35 Calm 16.09 A Few Clouds FEW110 4 4 100% 76.12 0.0
01 03:15 Calm 16.09 A Few Clouds FEW120 4 4 100% 76.12 0.0
01 02:55 Calm 16.09 Fair CLR 4 4 100% 76.12 0.0
01 02:35 Calm 16.09 Fair CLR 4 4 100% 76.15 0.0
01 02:15 Calm 16.09 Fair CLR 5 4 93% 76.15 0.0
01 01:55 Calm 16.09 A Few Clouds FEW120 6 4 87% 76.15 0.0
01 01:35 Calm 16.09 A Few Clouds FEW120 6 4 87% 76.15 0.0
01 01:15 N 9 16.09 Fair CLR 6 4 87% 4 76.15 0.0
01 00:55 N 7 16.09 Fair CLR 6 4 87% 5 76.15 0.0
01 00:35 Calm 16.09 Fair CLR 7 3 76% 76.17 0.0
01 00:15 Calm 16.09 Fair CLR 7 3 76% 76.17 0.0
30 23:55 Calm 16.09 Fair CLR 8 3 71% 76.2 0.0
30 23:35 N 7 16.09 Fair CLR 8 3 71% 7 76.2 0.0
30 23:15 N 6 16.09 Fair CLR 8 3 71% 76.2 0.0
30 22:55 N 7 16.09 Fair CLR 8 4 76% 7 76.2 0.0
30 22:35 N 9 16.09 Fair CLR 9 3 66% 8 76.17 0.0
30 22:15 N 7 16.09 Fair CLR 9 3 66% 8 76.17 0.0
30 21:55 N 6 16.09 Fair CLR 9 2 62% 76.15 0.0
30 21:35 NE 7 16.09 Fair CLR 10 2 58% 9 76.12 0.0
30 21:15 Calm 16.09 Fair CLR 11 3 58% 76.12 0.0
30 20:55 N 6 16.09 Fair CLR 11 2 54% 76.12 0.0
30 20:35 N 7 16.09 Fair CLR 12 2 51% 76.1 0.0
30 20:15 N 9 16.09 Fair CLR 13 1 44% 76.1 0.0
30 19:55 N 11 16.09 Fair CLR 14 1 41% 76.1 0.0
30 19:35 N 9 16.09 Fair CLR 14 0 39% 76.07 0.0
30 19:15 N 11 16.09 Fair CLR 15 0 36% 76.07 0.0
30 18:55 N 15 16.09 Fair CLR 15 0 36% 76.07 0.0
30 18:35 N 7 G 19 16.09 Fair CLR 15 0 36% 76.07 0.0
30 18:15 N 13 G 24 16.09 Fair CLR 16 0 34% 76.07 0.0
30 17:55 N 15 G 24 16.09 Fair CLR 16 0 34% 76.07 0.0
30 17:35 N 17 G 28 16.09 Fair CLR 16 1 36% 76.07 0.0
30 17:15 N 24 16.09 Fair CLR 16 1 36% 76.07 0.0
30 16:55 N 17 G 28 16.09 Fair CLR 17 1 34% 76.07 0.0
30 16:35 N 17 G 33 16.09 Fair CLR 17 1 34% 76.1 0.0
30 16:15 N 15 G 31 16.09 Fair CLR 16 0 34% 76.12 0.0
30 15:55 Vrbl 11 G 26 16.09 Fair CLR 16 1 36% 76.12 0.0
30 15:35 NW 15 G 39 16.09 Fair CLR 17 1 34% 76.12 0.0
30 15:15 Vrbl 7 G 26 16.09 Fair CLR 17 2 37% 76.15 0.0
30 14:55 N 9 G 24 16.09 Fair CLR 16 2 39% 76.15 0.0
30 14:35 NE 19 G 30 16.09 Fair CLR 16 2 39% 76.12 0.0
30 14:15 N 15 G 26 16.09 Fair CLR 15 2 42% 76.12 0.0
30 13:55 N 17 G 30 16.09 Fair CLR 15 2 42% 76.15 0.0
30 13:35 N 17 G 30 16.09 Fair CLR 15 2 42% 76.15 0.0
30 13:15 N 22 16.09 Fair CLR 15 3 45% 76.15 0.0
30 12:55 N 17 G 28 16.09 Fair CLR 15 3 45% 76.17 0.0
30 12:35 N 17 16.09 Fair CLR 14 3 48% 76.17 0.0
30 12:15 N 15 16.09 Fair CLR 14 4 51% 76.17 0.0
30 11:55 N 17 16.09 A Few Clouds FEW040 14 3 48% 76.2 0.0
30 11:35 NE 15 G 24 16.09 A Few Clouds FEW041 14 3 48% 76.2 0.0
30 11:15 Vrbl 7 16.09 Partly Cloudy SCT036 13 4 55% 76.2 0.0
30 10:55 NE 11 G 24 16.09 Mostly Cloudy BKN037 13 4 55% 76.17 0.0
30 10:35 N 17 16.09 A Few Clouds FEW029 FEW036 12 4 58% 76.15 0.0
30 10:15 N 11 G 22 16.09 Mostly Cloudy BKN028 BKN036 13 4 55% 76.17 0.0
30 09:55 NE 17 16.09 Mostly Cloudy BKN022 BKN028 12 6 67% 76.17 0.0
30 09:35 N 13 G 22 16.09 Mostly Cloudy BKN020 BKN025 12 6 67% 76.17 0.0
30 09:15 N 13 16.09 Partly Cloudy SCT021 SCT045 12 6 67% 76.17 0.0
30 08:55 N 13 16.09 Fair CLR 11 6 72% 76.15 0.0
30 08:35 N 15 16.09 Fair CLR 11 6 72% 76.15 0.0
30 08:15 N 13 16.09 A Few Clouds FEW045 10 6 76% 8 76.15 0.0
30 07:55 N 15 16.09 Overcast OVC046 10 6 76% 8 76.12 0.0
30 07:35 N 9 16.09 Mostly Cloudy BKN047 9 6 82% 8 76.12 0.0
30 07:15 Calm 16.09 Mostly Cloudy BKN048 9 6 82% 76.1 0.0
30 06:55 Calm 16.09 Overcast OVC049 9 6 82% 76.1 0.0
30 06:35 N 6 16.09 Overcast OVC049 10 6 76% 76.1 0.0
30 06:15 N 9 16.09 Overcast OVC049 10 6 76% 9 76.07 0.0
30 05:55 N 7 16.09 Overcast BKN043 OVC050 10 7 82% 9 76.07 0.0
30 05:30 N 9 16.09 Overcast OVC043 10 7 82% 9 76.07 0.0
30 05:15 N 7 16.09 Overcast OVC044 10 7 82% 9 76.02 0.0
30 04:55 N 9 16.09 Overcast OVC044 10 8 88% 9 76 0.0
30 04:35 N 7 16.09 Overcast OVC043 10 8 88% 9 76.02 0.0
30 04:15 N 9 16.09 Overcast OVC042 10 8 88% 9 76 0.0
30 03:55 Calm 16.09 Overcast OVC041 11 8 82% 76 0.0
30 03:35 Vrbl 7 16.09 Overcast OVC037 11 8 82% 76 0.0
30 03:15 NW 11 16.09 Overcast BKN037 OVC110 11 9 88% 76 0.0
30 02:55 N 11 16.09 Mostly Cloudy BKN120 12 9 82% 75.97 0.0
30 02:35 N 9 16.09 Mostly Cloudy FEW039 BKN120 12 9 82% 75.97 0.0
30 02:15 N 13 16.09 Partly Cloudy FEW040 SCT120 12 10 88% 76 0.0
30 01:55 N 13 16.09 Mostly Cloudy FEW035 FEW040 BKN110 12 10 88% 76 0.0
30 01:35 N 9 G 20 16.09 Overcast BKN036 OVC110 12 11 94% 76.05 0.0
30 01:15 N 9 16.09 Overcast BKN036 BKN045 OVC120 12 11 94% 76.1 0.0
30 00:55 N 6 16.09 Overcast BKN039 BKN046 OVC120 13 11 88% 76.12 0.0
30 00:35 NW 7 16.09 Overcast BKN037 OVC120 13 11 88% 76.12 0.0
30 00:15 Calm 16.09 Mostly Cloudy SCT032 BKN041 12 12 100% 76.1 0.0
29 23:55 Calm 16.09 Mostly Cloudy SCT033 BKN040 BKN045 12 12 100% 76.07 0.0
29 23:35 Calm 16.09 Mostly Cloudy BKN041 11 11 100% 76.07 0.0
29 23:15 Calm 16.09 Overcast OVC041 12 12 100% 76.1 0.0
29 22:55 Calm 16.09 Overcast BKN041 OVC046 12 12 100% 76.07 0.0
29 22:35 Calm 16.09 Mostly Cloudy BKN043 12 12 100% 76.07 0.0
29 22:15 Calm 16.09 Partly Cloudy SCT043 13 13 100% 76.07 0.0
29 21:55 Calm 16.09 A Few Clouds FEW042 13 12 94% 76.05 0.0
29 21:35 W 6 16.09 A Few Clouds FEW044 13 12 94% 76.02 0.0
29 21:15 Calm 16.09 Fair CLR 14 13 94% 75.97 0.0
29 20:55 Calm 16.09 Fair CLR 15 12 82% 75.97 0.0
29 20:35 Calm 16.09 Fair CLR 15 12 82% 75.97 0.0
29 20:15 N 7 16.09 Partly Cloudy SCT034 SCT041 16 12 77% 75.97 0.0
29 19:55 N 11 16.09 Overcast FEW019 FEW023 OVC034 17 13 77% 75.97 0.0
29 19:35 NW 11 G 24 16.09 Overcast FEW027 BKN036 OVC041 17 13 77% 75.95 0.0
29 19:15 NW 15 16.09 Overcast FEW027 SCT032 OVC041 17 13 77% 75.95 0.0
29 18:55 NW 17 G 28 16.09 Overcast FEW022 BKN028 OVC033 17 13 77% 75.97 0.0
29 18:35 Vrbl 7 G 20 16.09 Overcast SCT026 BKN035 OVC043 19 14 73% 75.95 0.0
29 18:15 NW 15 G 28 16.09 Overcast BKN026 BKN032 OVC041 19 13 68% 75.95 0.0
29 17:55 NW 11 G 22 16.09 Overcast SCT025 BKN031 OVC050 19 14 73% 75.9 0.0
29 17:35 NW 13 G 24 16.09 Overcast SCT027 BKN038 OVC060 20 14 69% 75.9 0.0
29 17:15 W 15 16.09 Overcast FEW027 SCT044 OVC060 21 14 64% 75.9 0.0
29 16:55 Vrbl 7 G 24 16.09 Mostly Cloudy BKN027 BKN038 BKN055 21 15 69% 75.87 0.0
29 16:35 NW 22 16.09 Mostly Cloudy SCT027 SCT032 BKN065 22 15 65% 75.87 0.0
29 16:15 NW 20 G 44 16.09 Mostly Cloudy FEW026 SCT048 BKN065 22 15 65% 75.87 0.0
29 15:55 NW 15 G 26 16.09 Mostly Cloudy FEW023 SCT055 BKN065 21 16 73% 75.87 0.0
29 15:35 W 19 G 31 16.09 Mostly Cloudy SCT023 SCT036 BKN047 22 15 65% 75.9 0.0
Date Time (edt) Wind (kph) Vis. (km) Weather Sky Cond. Air Dwpt Max. Min. Relative Humidity Wind Chill (°C) Heat Index (°C) altimeter (cm) sea level (mb) 1 hr 3 hr 6 hr
6 hour
Temperature (ºC) Pressure Precipitation (cm)